sensor_id;sensor_type;location;lat;lon;timestamp;temperature;humidity
1716;DHT22;855;48.824;9.220;2022-09-09T00:00:48;17.90;82.30
1716;DHT22;855;48.824;9.220;2022-09-09T00:03:17;18.00;82.00
1716;DHT22;855;48.824;9.220;2022-09-09T00:05:52;18.00;81.90
1716;DHT22;855;48.824;9.220;2022-09-09T00:08:27;17.90;81.50
1716;DHT22;855;48.824;9.220;2022-09-09T00:11:01;17.90;81.50
1716;DHT22;855;48.824;9.220;2022-09-09T00:13:36;17.90;81.50
1716;DHT22;855;48.824;9.220;2022-09-09T00:16:09;17.90;81.70
1716;DHT22;855;48.824;9.220;2022-09-09T00:18:45;17.80;81.90
1716;DHT22;855;48.824;9.220;2022-09-09T00:21:14;17.70;82.30
1716;DHT22;855;48.824;9.220;2022-09-09T00:23:46;17.70;82.10
1716;DHT22;855;48.824;9.220;2022-09-09T00:26:20;17.70;82.30
1716;DHT22;855;48.824;9.220;2022-09-09T00:28:55;17.80;82.30
1716;DHT22;855;48.824;9.220;2022-09-09T00:31:27;17.80;82.00
1716;DHT22;855;48.824;9.220;2022-09-09T00:33:57;17.80;82.00
1716;DHT22;855;48.824;9.220;2022-09-09T00:36:26;17.90;81.90
1716;DHT22;855;48.824;9.220;2022-09-09T00:38:56;18.00;81.50
1716;DHT22;855;48.824;9.220;2022-09-09T00:41:33;18.00;80.70
1716;DHT22;855;48.824;9.220;2022-09-09T00:44:19;18.00;80.30
1716;DHT22;855;48.824;9.220;2022-09-09T00:46:56;18.00;80.80
1716;DHT22;855;48.824;9.220;2022-09-09T00:49:32;17.90;80.80
1716;DHT22;855;48.824;9.220;2022-09-09T00:52:12;17.90;80.70
1716;DHT22;855;48.824;9.220;2022-09-09T00:54:47;17.90;80.70
1716;DHT22;855;48.824;9.220;2022-09-09T00:57:25;18.00;80.70
1716;DHT22;855;48.824;9.220;2022-09-09T01:05:39;18.10;80.40
1716;DHT22;855;48.824;9.220;2022-09-09T01:08:22;18.20;80.50
1716;DHT22;855;48.824;9.220;2022-09-09T01:10:54;18.30;79.90
1716;DHT22;855;48.824;9.220;2022-09-09T01:13:24;18.30;79.70
1716;DHT22;855;48.824;9.220;2022-09-09T01:15:54;18.40;79.90
1716;DHT22;855;48.824;9.220;2022-09-09T01:18:23;18.40;79.50
1716;DHT22;855;48.824;9.220;2022-09-09T01:21:00;18.50;79.30
1716;DHT22;855;48.824;9.220;2022-09-09T01:23:48;18.60;79.00
1716;DHT22;855;48.824;9.220;2022-09-09T01:26:26;18.50;78.60
1716;DHT22;855;48.824;9.220;2022-09-09T01:28:54;18.50;79.10
1716;DHT22;855;48.824;9.220;2022-09-09T01:31:23;18.60;79.00
1716;DHT22;855;48.824;9.220;2022-09-09T01:33:52;18.70;78.60
1716;DHT22;855;48.824;9.220;2022-09-09T01:36:24;18.70;78.30
1716;DHT22;855;48.824;9.220;2022-09-09T01:38:53;18.80;78.00
1716;DHT22;855;48.824;9.220;2022-09-09T01:41:20;18.80;77.90
1716;DHT22;855;48.824;9.220;2022-09-09T01:43:49;18.70;77.50
1716;DHT22;855;48.824;9.220;2022-09-09T01:46:17;18.60;77.50
1716;DHT22;855;48.824;9.220;2022-09-09T01:48:45;18.60;77.40
1716;DHT22;855;48.824;9.220;2022-09-09T01:51:12;18.70;77.90
1716;DHT22;855;48.824;9.220;2022-09-09T01:53:46;18.60;77.50
1716;DHT22;855;48.824;9.220;2022-09-09T01:56:47;18.70;77.80
1716;DHT22;855;48.824;9.220;2022-09-09T01:59:32;18.80;77.80
1716;DHT22;855;48.824;9.220;2022-09-09T02:02:10;18.80;77.80
1716;DHT22;855;48.824;9.220;2022-09-09T02:04:40;18.90;77.00
1716;DHT22;855;48.824;9.220;2022-09-09T02:07:18;19.00;77.00
1716;DHT22;855;48.824;9.220;2022-09-09T02:09:52;18.90;75.80
1716;DHT22;855;48.824;9.220;2022-09-09T02:12:22;18.70;78.00
1716;DHT22;855;48.824;9.220;2022-09-09T02:14:56;18.80;78.40
1716;DHT22;855;48.824;9.220;2022-09-09T02:17:28;18.80;78.80
1716;DHT22;855;48.824;9.220;2022-09-09T02:20:02;18.80;78.40
1716;DHT22;855;48.824;9.220;2022-09-09T02:22:31;18.80;78.40
1716;DHT22;855;48.824;9.220;2022-09-09T02:25:00;18.80;78.30
1716;DHT22;855;48.824;9.220;2022-09-09T02:27:27;18.80;78.30
1716;DHT22;855;48.824;9.220;2022-09-09T02:29:57;18.80;78.30
1716;DHT22;855;48.824;9.220;2022-09-09T02:32:26;18.90;77.60
1716;DHT22;855;48.824;9.220;2022-09-09T02:34:58;18.80;77.90
1716;DHT22;855;48.824;9.220;2022-09-09T02:37:30;18.80;78.30
1716;DHT22;855;48.824;9.220;2022-09-09T02:39:58;18.70;79.00
1716;DHT22;855;48.824;9.220;2022-09-09T02:42:25;18.60;80.10
1716;DHT22;855;48.824;9.220;2022-09-09T02:47:48;18.10;82.70
1716;DHT22;855;48.824;9.220;2022-09-09T02:50:21;18.00;82.80
1716;DHT22;855;48.824;9.220;2022-09-09T02:52:59;17.90;83.70
1716;DHT22;855;48.824;9.220;2022-09-09T02:55:37;17.80;84.00
1716;DHT22;855;48.824;9.220;2022-09-09T02:58:07;17.80;84.00
1716;DHT22;855;48.824;9.220;2022-09-09T03:00:35;17.80;84.00
1716;DHT22;855;48.824;9.220;2022-09-09T03:03:04;17.80;83.80
1716;DHT22;855;48.824;9.220;2022-09-09T03:05:31;17.90;83.60
1716;DHT22;855;48.824;9.220;2022-09-09T03:07:58;17.90;83.60
1716;DHT22;855;48.824;9.220;2022-09-09T03:10:25;17.90;83.30
1716;DHT22;855;48.824;9.220;2022-09-09T03:12:51;17.80;82.00
1716;DHT22;855;48.824;9.220;2022-09-09T03:15:18;17.70;81.90
1716;DHT22;855;48.824;9.220;2022-09-09T03:17:45;17.70;82.30
1716;DHT22;855;48.824;9.220;2022-09-09T03:20:14;17.70;82.10
1716;DHT22;855;48.824;9.220;2022-09-09T03:25:16;17.80;82.50
1716;DHT22;855;48.824;9.220;2022-09-09T03:27:43;17.70;82.30
1716;DHT22;855;48.824;9.220;2022-09-09T03:30:10;17.70;81.90
1716;DHT22;855;48.824;9.220;2022-09-09T03:32:37;17.70;81.50
1716;DHT22;855;48.824;9.220;2022-09-09T03:35:06;17.60;81.10
1716;DHT22;855;48.824;9.220;2022-09-09T03:37:34;17.50;81.50
1716;DHT22;855;48.824;9.220;2022-09-09T03:40:01;17.40;82.00
1716;DHT22;855;48.824;9.220;2022-09-09T03:42:28;17.20;82.70
1716;DHT22;855;48.824;9.220;2022-09-09T03:44:56;17.10;83.30
1716;DHT22;855;48.824;9.220;2022-09-09T03:47:23;17.10;83.30
1716;DHT22;855;48.824;9.220;2022-09-09T03:49:50;17.10;83.30
1716;DHT22;855;48.824;9.220;2022-09-09T03:52:17;17.10;83.30
1716;DHT22;855;48.824;9.220;2022-09-09T03:54:45;17.10;83.00
1716;DHT22;855;48.824;9.220;2022-09-09T03:57:12;17.10;83.30
1716;DHT22;855;48.824;9.220;2022-09-09T03:59:42;17.10;83.30
1716;DHT22;855;48.824;9.220;2022-09-09T04:02:09;17.20;83.30
1716;DHT22;855;48.824;9.220;2022-09-09T04:04:36;17.20;83.00
1716;DHT22;855;48.824;9.220;2022-09-09T04:07:03;17.30;83.00
1716;DHT22;855;48.824;9.220;2022-09-09T04:09:31;17.30;82.40
1716;DHT22;855;48.824;9.220;2022-09-09T04:11:59;17.40;82.50
1716;DHT22;855;48.824;9.220;2022-09-09T04:14:26;17.40;82.00
1716;DHT22;855;48.824;9.220;2022-09-09T04:16:54;17.40;82.00
1716;DHT22;855;48.824;9.220;2022-09-09T04:19:23;17.40;82.10
1716;DHT22;855;48.824;9.220;2022-09-09T04:21:50;17.40;81.70
1716;DHT22;855;48.824;9.220;2022-09-09T04:24:18;17.40;81.70
1716;DHT22;855;48.824;9.220;2022-09-09T04:26:45;17.30;81.90
1716;DHT22;855;48.824;9.220;2022-09-09T04:29:13;17.30;82.00
1716;DHT22;855;48.824;9.220;2022-09-09T04:31:40;17.30;82.30
1716;DHT22;855;48.824;9.220;2022-09-09T04:34:07;17.30;82.10
1716;DHT22;855;48.824;9.220;2022-09-09T04:36:35;17.30;82.30
1716;DHT22;855;48.824;9.220;2022-09-09T04:39:02;17.30;82.10
1716;DHT22;855;48.824;9.220;2022-09-09T04:41:28;17.30;82.10
1716;DHT22;855;48.824;9.220;2022-09-09T04:43:56;17.30;82.30
1716;DHT22;855;48.824;9.220;2022-09-09T04:46:26;17.20;82.10
1716;DHT22;855;48.824;9.220;2022-09-09T04:48:52;17.10;82.40
1716;DHT22;855;48.824;9.220;2022-09-09T04:51:20;17.10;82.70
1716;DHT22;855;48.824;9.220;2022-09-09T04:53:46;17.20;82.70
1716;DHT22;855;48.824;9.220;2022-09-09T04:56:16;17.20;82.50
1716;DHT22;855;48.824;9.220;2022-09-09T04:58:43;17.20;82.30
1716;DHT22;855;48.824;9.220;2022-09-09T05:01:12;17.30;82.40
1716;DHT22;855;48.824;9.220;2022-09-09T05:03:40;17.20;82.10
1716;DHT22;855;48.824;9.220;2022-09-09T05:06:09;17.30;82.40
1716;DHT22;855;48.824;9.220;2022-09-09T05:08:36;17.30;82.00
1716;DHT22;855;48.824;9.220;2022-09-09T05:11:04;17.40;82.10
1716;DHT22;855;48.824;9.220;2022-09-09T05:13:31;17.40;81.90
1716;DHT22;855;48.824;9.220;2022-09-09T05:15:58;17.50;81.90
1716;DHT22;855;48.824;9.220;2022-09-09T05:18:25;17.60;81.60
1716;DHT22;855;48.824;9.220;2022-09-09T05:20:58;17.60;81.30
1716;DHT22;855;48.824;9.220;2022-09-09T05:23:25;17.50;81.50
1716;DHT22;855;48.824;9.220;2022-09-09T05:25:56;17.50;81.60
1716;DHT22;855;48.824;9.220;2022-09-09T05:28:23;17.50;81.10
1716;DHT22;855;48.824;9.220;2022-09-09T05:31:01;17.60;81.20
1716;DHT22;855;48.824;9.220;2022-09-09T05:33:30;17.50;81.50
1716;DHT22;855;48.824;9.220;2022-09-09T05:36:01;17.60;81.10
1716;DHT22;855;48.824;9.220;2022-09-09T05:38:29;17.70;80.70
1716;DHT22;855;48.824;9.220;2022-09-09T05:40:56;17.80;80.80
1716;DHT22;855;48.824;9.220;2022-09-09T05:43:23;18.00;79.90
1716;DHT22;855;48.824;9.220;2022-09-09T05:45:59;18.10;79.30
1716;DHT22;855;48.824;9.220;2022-09-09T05:48:28;18.20;79.20
1716;DHT22;855;48.824;9.220;2022-09-09T05:50:56;18.30;78.80
1716;DHT22;855;48.824;9.220;2022-09-09T05:53:24;18.30;78.40
1716;DHT22;855;48.824;9.220;2022-09-09T05:55:59;18.40;78.70
1716;DHT22;855;48.824;9.220;2022-09-09T05:58:26;18.50;78.30
1716;DHT22;855;48.824;9.220;2022-09-09T06:00:53;18.50;77.80
1716;DHT22;855;48.824;9.220;2022-09-09T06:03:26;18.60;77.60
1716;DHT22;855;48.824;9.220;2022-09-09T06:05:57;18.60;77.60
1716;DHT22;855;48.824;9.220;2022-09-09T06:08:26;18.50;77.80
1716;DHT22;855;48.824;9.220;2022-09-09T06:11:00;18.60;78.20
1716;DHT22;855;48.824;9.220;2022-09-09T06:13:27;18.60;77.50
1716;DHT22;855;48.824;9.220;2022-09-09T06:15:54;18.60;77.50
1716;DHT22;855;48.824;9.220;2022-09-09T06:18:21;18.60;77.60
1716;DHT22;855;48.824;9.220;2022-09-09T06:20:55;18.70;77.60
1716;DHT22;855;48.824;9.220;2022-09-09T06:23:22;18.70;77.60
1716;DHT22;855;48.824;9.220;2022-09-09T06:25:50;18.80;78.00
1716;DHT22;855;48.824;9.220;2022-09-09T06:28:17;18.90;77.50
1716;DHT22;855;48.824;9.220;2022-09-09T06:30:44;19.00;77.60
1716;DHT22;855;48.824;9.220;2022-09-09T06:33:11;19.10;77.90
1716;DHT22;855;48.824;9.220;2022-09-09T06:35:38;19.20;76.80
1716;DHT22;855;48.824;9.220;2022-09-09T06:38:04;19.40;76.40
1716;DHT22;855;48.824;9.220;2022-09-09T06:40:32;19.40;76.20
1716;DHT22;855;48.824;9.220;2022-09-09T06:43:01;19.50;75.40
1716;DHT22;855;48.824;9.220;2022-09-09T06:45:28;19.50;75.60
1716;DHT22;855;48.824;9.220;2022-09-09T06:47:55;19.60;75.50
1716;DHT22;855;48.824;9.220;2022-09-09T06:50:23;19.70;74.90
1716;DHT22;855;48.824;9.220;2022-09-09T06:52:49;19.70;75.10
1716;DHT22;855;48.824;9.220;2022-09-09T06:55:17;19.70;75.00
1716;DHT22;855;48.824;9.220;2022-09-09T06:57:44;19.70;74.70
1716;DHT22;855;48.824;9.220;2022-09-09T07:00:13;19.70;75.00
1716;DHT22;855;48.824;9.220;2022-09-09T07:02:40;19.70;74.60
1716;DHT22;855;48.824;9.220;2022-09-09T07:05:08;19.90;74.60
1716;DHT22;855;48.824;9.220;2022-09-09T07:07:35;20.00;74.60
1716;DHT22;855;48.824;9.220;2022-09-09T07:10:02;20.00;73.90
1716;DHT22;855;48.824;9.220;2022-09-09T07:12:30;19.90;73.70
1716;DHT22;855;48.824;9.220;2022-09-09T07:14:57;20.00;73.80
1716;DHT22;855;48.824;9.220;2022-09-09T07:17:25;20.00;74.20
1716;DHT22;855;48.824;9.220;2022-09-09T07:19:52;20.10;74.20
1716;DHT22;855;48.824;9.220;2022-09-09T07:22:18;20.20;73.30
1716;DHT22;855;48.824;9.220;2022-09-09T07:24:45;20.30;73.80
1716;DHT22;855;48.824;9.220;2022-09-09T07:27:12;20.40;74.10
1716;DHT22;855;48.824;9.220;2022-09-09T07:29:39;20.50;73.10
1716;DHT22;855;48.824;9.220;2022-09-09T07:32:06;20.50;72.70
1716;DHT22;855;48.824;9.220;2022-09-09T07:34:34;20.60;72.90
1716;DHT22;855;48.824;9.220;2022-09-09T07:37:00;20.70;72.90
1716;DHT22;855;48.824;9.220;2022-09-09T07:39:27;20.80;72.60
1716;DHT22;855;48.824;9.220;2022-09-09T07:41:54;20.90;71.80
1716;DHT22;855;48.824;9.220;2022-09-09T07:44:23;21.00;71.60
1716;DHT22;855;48.824;9.220;2022-09-09T07:46:52;21.10;71.30
1716;DHT22;855;48.824;9.220;2022-09-09T07:49:19;21.30;70.50
1716;DHT22;855;48.824;9.220;2022-09-09T07:51:47;21.50;69.30
1716;DHT22;855;48.824;9.220;2022-09-09T07:54:16;21.60;69.60
1716;DHT22;855;48.824;9.220;2022-09-09T07:56:45;21.60;68.40
1716;DHT22;855;48.824;9.220;2022-09-09T07:59:13;21.80;68.00
1716;DHT22;855;48.824;9.220;2022-09-09T08:01:41;21.80;67.50
1716;DHT22;855;48.824;9.220;2022-09-09T08:04:10;21.90;67.90
1716;DHT22;855;48.824;9.220;2022-09-09T08:06:41;22.10;68.20
1716;DHT22;855;48.824;9.220;2022-09-09T08:09:10;22.10;66.90
1716;DHT22;855;48.824;9.220;2022-09-09T08:11:38;22.20;67.10
1716;DHT22;855;48.824;9.220;2022-09-09T08:14:06;22.40;66.40
1716;DHT22;855;48.824;9.220;2022-09-09T08:16:35;22.60;66.40
1716;DHT22;855;48.824;9.220;2022-09-09T08:19:03;22.80;65.20
1716;DHT22;855;48.824;9.220;2022-09-09T08:21:32;22.80;64.90
1716;DHT22;855;48.824;9.220;2022-09-09T08:24:00;22.90;65.50
1716;DHT22;855;48.824;9.220;2022-09-09T08:26:31;22.90;64.90
1716;DHT22;855;48.824;9.220;2022-09-09T08:28:59;22.90;64.40
1716;DHT22;855;48.824;9.220;2022-09-09T08:31:28;22.90;64.50
1716;DHT22;855;48.824;9.220;2022-09-09T08:33:56;23.10;63.60
1716;DHT22;855;48.824;9.220;2022-09-09T08:36:26;23.30;64.00
1716;DHT22;855;48.824;9.220;2022-09-09T08:38:54;23.60;63.50
1716;DHT22;855;48.824;9.220;2022-09-09T08:41:40;23.80;62.30
1716;DHT22;855;48.824;9.220;2022-09-09T08:44:14;23.50;62.80
1716;DHT22;855;48.824;9.220;2022-09-09T08:46:50;23.20;64.00
1716;DHT22;855;48.824;9.220;2022-09-09T08:52:16;23.20;63.90
1716;DHT22;855;48.824;9.220;2022-09-09T08:54:45;23.50;64.20
1716;DHT22;855;48.824;9.220;2022-09-09T08:57:19;23.70;60.70
1716;DHT22;855;48.824;9.220;2022-09-09T08:59:48;24.00;61.00
1716;DHT22;855;48.824;9.220;2022-09-09T09:02:19;24.10;59.00
1716;DHT22;855;48.824;9.220;2022-09-09T09:04:59;24.10;59.80
1716;DHT22;855;48.824;9.220;2022-09-09T09:07:36;24.30;59.00
1716;DHT22;855;48.824;9.220;2022-09-09T09:10:15;24.50;58.20
1716;DHT22;855;48.824;9.220;2022-09-09T09:12:48;24.60;56.20
1716;DHT22;855;48.824;9.220;2022-09-09T09:15:19;24.70;56.50
1716;DHT22;855;48.824;9.220;2022-09-09T09:17:47;24.70;56.30
1716;DHT22;855;48.824;9.220;2022-09-09T09:20:16;24.60;55.40
1716;DHT22;855;48.824;9.220;2022-09-09T09:22:48;24.30;54.70
1716;DHT22;855;48.824;9.220;2022-09-09T09:25:18;24.10;54.50
1716;DHT22;855;48.824;9.220;2022-09-09T09:27:52;24.10;54.40
1716;DHT22;855;48.824;9.220;2022-09-09T09:30:25;24.10;56.50
1716;DHT22;855;48.824;9.220;2022-09-09T09:32:56;23.80;57.00
1716;DHT22;855;48.824;9.220;2022-09-09T09:35:25;23.60;56.90
1716;DHT22;855;48.824;9.220;2022-09-09T09:37:52;23.40;57.90
1716;DHT22;855;48.824;9.220;2022-09-09T09:40:21;23.50;59.00
1716;DHT22;855;48.824;9.220;2022-09-09T09:42:52;23.40;57.30
1716;DHT22;855;48.824;9.220;2022-09-09T09:45:27;23.20;58.30
1716;DHT22;855;48.824;9.220;2022-09-09T09:47:59;23.00;58.70
1716;DHT22;855;48.824;9.220;2022-09-09T09:50:27;22.60;59.30
1716;DHT22;855;48.824;9.220;2022-09-09T09:52:55;22.50;60.30
1716;DHT22;855;48.824;9.220;2022-09-09T09:55:23;22.60;61.10
1716;DHT22;855;48.824;9.220;2022-09-09T09:57:52;22.70;59.70
1716;DHT22;855;48.824;9.220;2022-09-09T10:00:20;23.00;58.20
1716;DHT22;855;48.824;9.220;2022-09-09T10:02:48;23.30;56.70
1716;DHT22;855;48.824;9.220;2022-09-09T10:05:19;23.40;55.40
1716;DHT22;855;48.824;9.220;2022-09-09T10:07:57;23.40;55.30
1716;DHT22;855;48.824;9.220;2022-09-09T10:13:20;23.70;53.60
1716;DHT22;855;48.824;9.220;2022-09-09T10:15:59;23.80;54.40
1716;DHT22;855;48.824;9.220;2022-09-09T10:18:39;24.00;53.70
1716;DHT22;855;48.824;9.220;2022-09-09T10:21:18;24.00;54.30
1716;DHT22;855;48.824;9.220;2022-09-09T10:24:00;24.00;55.50
1716;DHT22;855;48.824;9.220;2022-09-09T10:26:38;24.10;54.90
1716;DHT22;855;48.824;9.220;2022-09-09T10:29:26;24.30;53.90
1716;DHT22;855;48.824;9.220;2022-09-09T10:32:07;24.50;54.50
1716;DHT22;855;48.824;9.220;2022-09-09T10:34:48;24.70;54.50
1716;DHT22;855;48.824;9.220;2022-09-09T10:37:25;24.60;52.70
1716;DHT22;855;48.824;9.220;2022-09-09T10:40:00;24.70;53.30
1716;DHT22;855;48.824;9.220;2022-09-09T10:42:31;24.90;54.90
1716;DHT22;855;48.824;9.220;2022-09-09T10:45:13;25.10;54.80
1716;DHT22;855;48.824;9.220;2022-09-09T10:47:53;25.10;53.70
1716;DHT22;855;48.824;9.220;2022-09-09T10:50:39;25.10;54.40
1716;DHT22;855;48.824;9.220;2022-09-09T10:53:16;25.10;54.50
1716;DHT22;855;48.824;9.220;2022-09-09T10:55:50;25.30;54.90
1716;DHT22;855;48.824;9.220;2022-09-09T10:58:22;25.10;55.70
1716;DHT22;855;48.824;9.220;2022-09-09T11:00:54;24.90;56.50
1716;DHT22;855;48.824;9.220;2022-09-09T11:03:25;24.90;56.00
1716;DHT22;855;48.824;9.220;2022-09-09T11:05:56;25.20;56.00
1716;DHT22;855;48.824;9.220;2022-09-09T11:08:26;25.10;56.30
1716;DHT22;855;48.824;9.220;2022-09-09T11:10:59;25.00;56.90
1716;DHT22;855;48.824;9.220;2022-09-09T11:13:30;25.10;57.70
1716;DHT22;855;48.824;9.220;2022-09-09T11:16:15;25.10;56.00
1716;DHT22;855;48.824;9.220;2022-09-09T11:18:44;25.10;55.50
1716;DHT22;855;48.824;9.220;2022-09-09T11:21:16;24.70;53.40
1716;DHT22;855;48.824;9.220;2022-09-09T11:23:48;24.00;54.90
1716;DHT22;855;48.824;9.220;2022-09-09T11:26:27;23.50;56.50
1716;DHT22;855;48.824;9.220;2022-09-09T11:29:04;22.70;58.20
1716;DHT22;855;48.824;9.220;2022-09-09T11:31:52;22.30;59.30
1716;DHT22;855;48.824;9.220;2022-09-09T11:34:37;22.00;60.40
1716;DHT22;855;48.824;9.220;2022-09-09T11:37:35;21.90;62.40
1716;DHT22;855;48.824;9.220;2022-09-09T11:40:15;21.50;63.80
1716;DHT22;855;48.824;9.220;2022-09-09T11:42:42;21.40;63.80
1716;DHT22;855;48.824;9.220;2022-09-09T11:45:15;21.30;63.10
1716;DHT22;855;48.824;9.220;2022-09-09T11:47:53;21.30;63.50
1716;DHT22;855;48.824;9.220;2022-09-09T11:50:30;21.30;62.80
1716;DHT22;855;48.824;9.220;2022-09-09T11:53:22;21.30;61.80
1716;DHT22;855;48.824;9.220;2022-09-09T11:56:11;21.30;62.30
1716;DHT22;855;48.824;9.220;2022-09-09T11:58:43;21.40;62.30
1716;DHT22;855;48.824;9.220;2022-09-09T12:01:36;21.40;62.20
1716;DHT22;855;48.824;9.220;2022-09-09T12:07:03;21.80;62.30
1716;DHT22;855;48.824;9.220;2022-09-09T12:09:44;22.00;60.70
1716;DHT22;855;48.824;9.220;2022-09-09T12:12:29;22.10;59.40
1716;DHT22;855;48.824;9.220;2022-09-09T12:17:47;22.30;57.70
1716;DHT22;855;48.824;9.220;2022-09-09T12:20:19;22.40;57.40
1716;DHT22;855;48.824;9.220;2022-09-09T12:23:11;22.60;57.20
1716;DHT22;855;48.824;9.220;2022-09-09T12:25:57;22.80;55.50
1716;DHT22;855;48.824;9.220;2022-09-09T12:28:31;23.10;56.20
1716;DHT22;855;48.824;9.220;2022-09-09T12:31:10;23.20;55.70
1716;DHT22;855;48.824;9.220;2022-09-09T12:33:44;23.40;55.20
1716;DHT22;855;48.824;9.220;2022-09-09T12:36:16;23.50;54.00
1716;DHT22;855;48.824;9.220;2022-09-09T12:38:45;23.70;53.10
1716;DHT22;855;48.824;9.220;2022-09-09T12:41:20;23.80;53.20
1716;DHT22;855;48.824;9.220;2022-09-09T12:43:48;23.80;51.40
1716;DHT22;855;48.824;9.220;2022-09-09T12:46:23;23.80;52.40
1716;DHT22;855;48.824;9.220;2022-09-09T12:48:53;23.80;51.60
1716;DHT22;855;48.824;9.220;2022-09-09T12:51:24;23.80;51.40
1716;DHT22;855;48.824;9.220;2022-09-09T12:53:53;23.70;51.70
1716;DHT22;855;48.824;9.220;2022-09-09T12:56:22;23.70;51.20
1716;DHT22;855;48.824;9.220;2022-09-09T12:58:53;23.70;52.10
1716;DHT22;855;48.824;9.220;2022-09-09T13:01:22;23.70;51.70
1716;DHT22;855;48.824;9.220;2022-09-09T13:03:49;24.00;52.10
1716;DHT22;855;48.824;9.220;2022-09-09T13:06:22;24.30;52.20
1716;DHT22;855;48.824;9.220;2022-09-09T13:08:50;24.60;50.90
1716;DHT22;855;48.824;9.220;2022-09-09T13:11:19;24.70;50.10
1716;DHT22;855;48.824;9.220;2022-09-09T13:13:51;24.70;50.70
1716;DHT22;855;48.824;9.220;2022-09-09T13:16:20;24.70;49.90
1716;DHT22;855;48.824;9.220;2022-09-09T13:18:48;24.70;51.30
1716;DHT22;855;48.824;9.220;2022-09-09T13:21:16;24.90;50.30
1716;DHT22;855;48.824;9.220;2022-09-09T13:23:48;25.00;50.20
1716;DHT22;855;48.824;9.220;2022-09-09T13:26:23;24.80;49.80
1716;DHT22;855;48.824;9.220;2022-09-09T13:28:51;24.80;50.30
1716;DHT22;855;48.824;9.220;2022-09-09T13:31:22;24.80;50.30
1716;DHT22;855;48.824;9.220;2022-09-09T13:33:49;24.90;50.90
1716;DHT22;855;48.824;9.220;2022-09-09T13:36:28;24.80;50.40
1716;DHT22;855;48.824;9.220;2022-09-09T13:38:58;24.80;52.10
1716;DHT22;855;48.824;9.220;2022-09-09T13:41:42;25.00;51.10
1716;DHT22;855;48.824;9.220;2022-09-09T13:44:19;25.10;50.80
1716;DHT22;855;48.824;9.220;2022-09-09T13:47:00;25.30;50.60
1716;DHT22;855;48.824;9.220;2022-09-09T13:49:29;25.40;50.30
1716;DHT22;855;48.824;9.220;2022-09-09T13:52:05;25.40;49.80
1716;DHT22;855;48.824;9.220;2022-09-09T13:54:36;25.20;51.10
1716;DHT22;855;48.824;9.220;2022-09-09T13:57:03;25.10;50.60
1716;DHT22;855;48.824;9.220;2022-09-09T13:59:30;25.00;50.90
1716;DHT22;855;48.824;9.220;2022-09-09T14:01:58;25.00;50.70
1716;DHT22;855;48.824;9.220;2022-09-09T14:04:24;24.90;50.70
1716;DHT22;855;48.824;9.220;2022-09-09T14:06:51;24.80;50.80
1716;DHT22;855;48.824;9.220;2022-09-09T14:09:18;24.90;50.40
1716;DHT22;855;48.824;9.220;2022-09-09T14:11:47;25.10;49.30
1716;DHT22;855;48.824;9.220;2022-09-09T14:14:13;25.10;48.80
1716;DHT22;855;48.824;9.220;2022-09-09T14:16:40;25.00;48.30
1716;DHT22;855;48.824;9.220;2022-09-09T14:19:08;24.80;48.60
1716;DHT22;855;48.824;9.220;2022-09-09T14:21:35;24.80;48.70
1716;DHT22;855;48.824;9.220;2022-09-09T14:24:02;25.00;48.20
1716;DHT22;855;48.824;9.220;2022-09-09T14:26:28;25.20;47.60
1716;DHT22;855;48.824;9.220;2022-09-09T14:28:57;25.30;47.10
1716;DHT22;855;48.824;9.220;2022-09-09T14:31:24;25.40;45.60
1716;DHT22;855;48.824;9.220;2022-09-09T14:33:51;25.40;45.70
1716;DHT22;855;48.824;9.220;2022-09-09T14:36:18;25.30;45.50
1716;DHT22;855;48.824;9.220;2022-09-09T14:38:45;25.40;45.70
1716;DHT22;855;48.824;9.220;2022-09-09T14:41:14;25.50;45.70
1716;DHT22;855;48.824;9.220;2022-09-09T14:43:42;25.50;44.80
1716;DHT22;855;48.824;9.220;2022-09-09T14:46:13;25.30;44.70
1716;DHT22;855;48.824;9.220;2022-09-09T14:48:40;25.00;45.20
1716;DHT22;855;48.824;9.220;2022-09-09T14:51:08;24.90;46.20
1716;DHT22;855;48.824;9.220;2022-09-09T14:53:35;24.90;46.60
1716;DHT22;855;48.824;9.220;2022-09-09T14:56:06;25.10;46.60
1716;DHT22;855;48.824;9.220;2022-09-09T14:58:34;25.20;45.70
1716;DHT22;855;48.824;9.220;2022-09-09T15:01:05;25.30;45.20
1716;DHT22;855;48.824;9.220;2022-09-09T15:03:33;25.30;45.60
1716;DHT22;855;48.824;9.220;2022-09-09T15:06:05;25.40;45.60
1716;DHT22;855;48.824;9.220;2022-09-09T15:08:34;25.50;45.20
1716;DHT22;855;48.824;9.220;2022-09-09T15:11:01;25.40;44.60
1716;DHT22;855;48.824;9.220;2022-09-09T15:13:28;25.20;45.50
1716;DHT22;855;48.824;9.220;2022-09-09T15:15:55;25.10;45.80
1716;DHT22;855;48.824;9.220;2022-09-09T15:18:23;25.00;46.00
1716;DHT22;855;48.824;9.220;2022-09-09T15:20:52;25.00;46.10
1716;DHT22;855;48.824;9.220;2022-09-09T15:23:18;24.90;46.20
1716;DHT22;855;48.824;9.220;2022-09-09T15:25:52;24.70;47.10
1716;DHT22;855;48.824;9.220;2022-09-09T15:28:19;24.60;47.80
1716;DHT22;855;48.824;9.220;2022-09-09T15:30:48;24.40;47.70
1716;DHT22;855;48.824;9.220;2022-09-09T15:33:15;24.40;48.20
1716;DHT22;855;48.824;9.220;2022-09-09T15:35:42;24.30;47.50
1716;DHT22;855;48.824;9.220;2022-09-09T15:38:10;24.30;47.10
1716;DHT22;855;48.824;9.220;2022-09-09T15:40:38;24.20;47.20
1716;DHT22;855;48.824;9.220;2022-09-09T15:43:06;24.10;47.60
1716;DHT22;855;48.824;9.220;2022-09-09T15:45:33;24.00;47.90
1716;DHT22;855;48.824;9.220;2022-09-09T15:47:59;24.00;48.20
1716;DHT22;855;48.824;9.220;2022-09-09T15:50:26;24.00;48.60
1716;DHT22;855;48.824;9.220;2022-09-09T15:52:53;23.80;48.80
1716;DHT22;855;48.824;9.220;2022-09-09T15:55:22;23.70;49.40
1716;DHT22;855;48.824;9.220;2022-09-09T15:57:50;23.60;49.80
1716;DHT22;855;48.824;9.220;2022-09-09T16:00:17;23.50;50.20
1716;DHT22;855;48.824;9.220;2022-09-09T16:02:45;23.50;50.40
1716;DHT22;855;48.824;9.220;2022-09-09T16:05:12;23.60;50.70
1716;DHT22;855;48.824;9.220;2022-09-09T16:07:39;23.70;50.90
1716;DHT22;855;48.824;9.220;2022-09-09T16:10:08;23.60;50.70
1716;DHT22;855;48.824;9.220;2022-09-09T16:12:36;23.60;50.80
1716;DHT22;855;48.824;9.220;2022-09-09T16:15:05;23.70;51.20
1716;DHT22;855;48.824;9.220;2022-09-09T16:17:32;23.60;51.40
1716;DHT22;855;48.824;9.220;2022-09-09T16:20:03;23.70;52.40
1716;DHT22;855;48.824;9.220;2022-09-09T16:22:32;23.60;52.60
1716;DHT22;855;48.824;9.220;2022-09-09T16:24:59;23.50;52.10
1716;DHT22;855;48.824;9.220;2022-09-09T16:27:26;23.40;52.10
1716;DHT22;855;48.824;9.220;2022-09-09T16:29:54;23.30;51.90
1716;DHT22;855;48.824;9.220;2022-09-09T16:32:20;23.30;52.70
1716;DHT22;855;48.824;9.220;2022-09-09T16:34:47;23.10;53.10
1716;DHT22;855;48.824;9.220;2022-09-09T16:37:14;22.70;52.90
1716;DHT22;855;48.824;9.220;2022-09-09T16:39:41;22.20;53.90
1716;DHT22;855;48.824;9.220;2022-09-09T16:42:08;21.80;54.50
1716;DHT22;855;48.824;9.220;2022-09-09T16:44:35;21.40;56.00
1716;DHT22;855;48.824;9.220;2022-09-09T16:47:03;21.10;57.40
1716;DHT22;855;48.824;9.220;2022-09-09T16:49:30;20.80;58.80
1716;DHT22;855;48.824;9.220;2022-09-09T16:51:58;20.60;59.50
1716;DHT22;855;48.824;9.220;2022-09-09T16:54:25;20.60;59.50
1716;DHT22;855;48.824;9.220;2022-09-09T16:56:52;20.60;59.90
1716;DHT22;855;48.824;9.220;2022-09-09T16:59:20;20.60;59.40
1716;DHT22;855;48.824;9.220;2022-09-09T17:01:49;20.60;60.60